Thursday, June 29, 2017, 10:23 AM EDT
Back to Local

KMTP, Montauk Airport

Location: Montauk, NY, United States Lat: 41.067
Local Time: 10:23 AM EDT (14:23 GMT) Lon: -71.917
Time Zone: US/Eastern Elev: 6 ft

Show me the last for .
Show Coded

Time T Td Feel RH Dir Speed Gust Alt SLP Vis Weather Sky Remarks
2017-06-29 09:54 70 60 - 70 230° 6 - 30.18 30.17 0 None
2017-06-29 08:54 70 60 - 70 230° 5 - 30.19 30.19 0 None
2017-06-29 07:54 68 60 - 75 - Calm - 30.19 30.18 0 6-hr Min Temp (8am): 64.9°F
6-hr Max Temp (8am): 69.1°F
2017-06-29 06:54 69 57 - 65 240° 5 - 30.18 30.17 0 None
2017-06-29 05:54 67 58 - 72 240° 6 - 30.17 30.17 0 None
2017-06-29 04:54 67 59 - 75 260° 5 - 30.16 30.16 0 None
2017-06-29 03:54 65 61 - 87 240° 5 - 30.15 30.15 0 None
2017-06-29 02:54 66 62 - 87 230° 7 - 30.14 30.14 0 None
2017-06-29 00:54 65 62 - 90 210° 6 - 30.14 30.14 0 24-hr Min Temp (1am): 54.0°F
24-hr Max Temp (1am): 75.9°F
2017-06-28 23:54 67 61 - 81 220° 7 - 30.14 30.14 0 None
2017-06-28 22:54 67 61 - 81 Variable 7 - 30.14 30.14 0 None
2017-06-28 21:54 67 61 - 81 230° 8 - 30.13 30.13 0 None
2017-06-28 20:54 67 60 - 78 230° 8 - 30.12 30.11 0 None
2017-06-28 19:54 69 58 - 67 230° 7 18 30.11 30.11 0 6-hr Min Temp (8pm): 69.1°F
6-hr Max Temp (8pm): 75.9°F
2017-06-28 18:54 71 55 76 56 220° 7 - 30.10 30.09 0 None
2017-06-28 17:54 72 58 76 61 Variable 7 - 30.09 30.09 0 None
2017-06-28 16:54 73 59 77 61 210° 7 - 30.08 30.08 0 None
2017-06-28 15:54 74 58 77 57 Variable 5 - 30.09 30.09 0 None
2017-06-28 14:54 76 52 77 43 260° 12 - 30.11 30.11 0 None
2017-06-28 13:54 74 53 77 48 260° 8 - 30.11 30.10 0 6-hr Min Temp (2pm): 64.9°F
6-hr Max Temp (2pm): 73.9°F
2017-06-28 12:54 73 53 76 49 240° 8 - 30.10 30.10 0 None
2017-06-28 11:54 71 55 76 56 260° 8 - 30.10 30.09 0 None
2017-06-28 10:54 69 53 - 56 270° 8 - 30.09 30.09 0 None

Support USWX by starting your Amazon purchase here.